< < Back
Terminal Aerodrome Forecast


Current Version              Previous Versions:   1  2  3  4  5  6  7  8  9  

Terminal Aerodrome Forecast

022
FTUS44 KOHX 281137
TAFCSV
TAF
KCSV 281137Z 2812/2912 20005KT P6SM VCSH SCT010 OVC020
     FM281700 22006KT 6SM -SHRA BR OVC015
      TEMPO 2817/2821 3SM -TSRA BR OVC015CB
     FM282200 26008KT 4SM TSRA OVC015CB
     FM290200 VRB02KT P6SM OVC025
     FM290500 VRB02KT 3SM BR BKN008 OVC015=

Latest METAR

338
SAUS70 KWBC 281400
MTRCSV
METAR KCSV 281353Z AUTO VRB06KT 10SM BKN016 BKN023 24/21 A3002 RMK AO2
SLP143 T02390206


USA.gov is the U.S. government's official web portal to all federal, state and local government web resources and services.